sensor_id;sensor_type;location;lat;lon;timestamp;P1;durP1;ratioP1;P2;durP2;ratioP2
38937;SDS011;24727;51.974;20.868;2023-08-07T00:01:09;0.35;;;0.35;;
38937;SDS011;24727;51.974;20.868;2023-08-07T00:03:35;0.57;;;0.40;;
38937;SDS011;24727;51.974;20.868;2023-08-07T00:06:07;0.85;;;0.30;;
38937;SDS011;24727;51.974;20.868;2023-08-07T00:08:33;2.22;;;0.60;;
38937;SDS011;24727;51.974;20.868;2023-08-07T00:11:05;0.95;;;0.50;;
38937;SDS011;24727;51.974;20.868;2023-08-07T00:13:32;1.15;;;0.43;;
38937;SDS011;24727;51.974;20.868;2023-08-07T00:15:58;0.50;;;0.50;;
38937;SDS011;24727;51.974;20.868;2023-08-07T00:18:24;0.60;;;0.60;;
38937;SDS011;24727;51.974;20.868;2023-08-07T00:20:50;0.40;;;0.40;;
38937;SDS011;24727;51.974;20.868;2023-08-07T00:23:16;3.17;;;0.50;;
38937;SDS011;24727;51.974;20.868;2023-08-07T00:25:43;0.70;;;0.50;;
38937;SDS011;24727;51.974;20.868;2023-08-07T00:28:10;1.20;;;0.52;;
38937;SDS011;24727;51.974;20.868;2023-08-07T00:30:36;1.92;;;0.70;;
38937;SDS011;24727;51.974;20.868;2023-08-07T00:33:02;0.80;;;0.60;;
38937;SDS011;24727;51.974;20.868;2023-08-07T00:35:28;0.93;;;0.73;;
38937;SDS011;24727;51.974;20.868;2023-08-07T00:37:54;2.15;;;0.70;;
38937;SDS011;24727;51.974;20.868;2023-08-07T00:40:20;1.33;;;0.77;;
38937;SDS011;24727;51.974;20.868;2023-08-07T00:42:47;2.10;;;0.80;;
38937;SDS011;24727;51.974;20.868;2023-08-07T00:45:13;2.55;;;1.00;;
38937;SDS011;24727;51.974;20.868;2023-08-07T00:47:39;2.05;;;0.90;;
38937;SDS011;24727;51.974;20.868;2023-08-07T00:50:05;4.85;;;1.10;;
38937;SDS011;24727;51.974;20.868;2023-08-07T00:52:33;1.20;;;1.00;;
38937;SDS011;24727;51.974;20.868;2023-08-07T00:54:59;1.45;;;1.02;;
38937;SDS011;24727;51.974;20.868;2023-08-07T00:57:26;2.35;;;1.50;;
38937;SDS011;24727;51.974;20.868;2023-08-07T00:59:53;1.10;;;1.00;;
38937;SDS011;24727;51.974;20.868;2023-08-07T01:02:19;2.53;;;1.20;;
38937;SDS011;24727;51.974;20.868;2023-08-07T01:04:47;1.17;;;0.80;;
38937;SDS011;24727;51.974;20.868;2023-08-07T01:07:16;1.48;;;1.38;;
38937;SDS011;24727;51.974;20.868;2023-08-07T01:09:42;4.28;;;1.70;;
38937;SDS011;24727;51.974;20.868;2023-08-07T01:12:13;1.48;;;1.38;;
38937;SDS011;24727;51.974;20.868;2023-08-07T01:14:49;2.70;;;1.35;;
38937;SDS011;24727;51.974;20.868;2023-08-07T01:17:21;1.45;;;1.30;;
38937;SDS011;24727;51.974;20.868;2023-08-07T01:19:55;4.05;;;1.60;;
38937;SDS011;24727;51.974;20.868;2023-08-07T01:22:24;4.10;;;1.35;;
38937;SDS011;24727;51.974;20.868;2023-08-07T01:24:50;4.82;;;1.70;;
38937;SDS011;24727;51.974;20.868;2023-08-07T01:29:57;2.13;;;1.65;;
38937;SDS011;24727;51.974;20.868;2023-08-07T01:35:05;1.80;;;1.70;;
38937;SDS011;24727;51.974;20.868;2023-08-07T01:37:33;2.05;;;1.95;;
38937;SDS011;24727;51.974;20.868;2023-08-07T01:40:03;8.47;;;2.33;;
38937;SDS011;24727;51.974;20.868;2023-08-07T01:42:32;2.45;;;2.20;;
38937;SDS011;24727;51.974;20.868;2023-08-07T01:45:00;2.80;;;2.60;;
38937;SDS011;24727;51.974;20.868;2023-08-07T01:47:26;2.65;;;2.45;;
38937;SDS011;24727;51.974;20.868;2023-08-07T01:49:52;4.45;;;2.67;;
38937;SDS011;24727;51.974;20.868;2023-08-07T01:52:18;3.00;;;2.70;;
38937;SDS011;24727;51.974;20.868;2023-08-07T01:54:45;4.07;;;2.70;;
38937;SDS011;24727;51.974;20.868;2023-08-07T01:57:11;3.22;;;2.80;;
38937;SDS011;24727;51.974;20.868;2023-08-07T01:59:37;2.75;;;2.55;;
38937;SDS011;24727;51.974;20.868;2023-08-07T02:02:03;5.00;;;2.45;;
38937;SDS011;24727;51.974;20.868;2023-08-07T02:04:29;3.70;;;2.60;;
38937;SDS011;24727;51.974;20.868;2023-08-07T02:06:55;2.78;;;2.40;;
38937;SDS011;24727;51.974;20.868;2023-08-07T02:09:22;2.70;;;2.50;;
38937;SDS011;24727;51.974;20.868;2023-08-07T02:11:48;6.00;;;2.53;;
38937;SDS011;24727;51.974;20.868;2023-08-07T02:14:14;2.78;;;2.58;;
38937;SDS011;24727;51.974;20.868;2023-08-07T02:16:42;5.32;;;3.25;;
38937;SDS011;24727;51.974;20.868;2023-08-07T02:19:08;3.20;;;2.95;;
38937;SDS011;24727;51.974;20.868;2023-08-07T02:21:34;10.18;;;2.88;;
38937;SDS011;24727;51.974;20.868;2023-08-07T02:24:06;3.70;;;2.60;;
38937;SDS011;24727;51.974;20.868;2023-08-07T02:26:32;3.17;;;2.90;;
38937;SDS011;24727;51.974;20.868;2023-08-07T02:28:58;8.73;;;2.92;;
38937;SDS011;24727;51.974;20.868;2023-08-07T02:31:24;4.88;;;3.60;;
38937;SDS011;24727;51.974;20.868;2023-08-07T02:33:50;4.13;;;2.97;;
38937;SDS011;24727;51.974;20.868;2023-08-07T02:36:16;2.90;;;2.70;;
38937;SDS011;24727;51.974;20.868;2023-08-07T02:38:43;4.15;;;3.15;;
38937;SDS011;24727;51.974;20.868;2023-08-07T02:41:11;2.20;;;2.00;;
38937;SDS011;24727;51.974;20.868;2023-08-07T02:43:37;1.50;;;1.40;;
38937;SDS011;24727;51.974;20.868;2023-08-07T02:46:03;3.90;;;1.70;;
38937;SDS011;24727;51.974;20.868;2023-08-07T02:48:29;2.08;;;1.70;;
38937;SDS011;24727;51.974;20.868;2023-08-07T02:50:56;1.40;;;1.30;;
38937;SDS011;24727;51.974;20.868;2023-08-07T02:53:23;1.95;;;1.30;;
38937;SDS011;24727;51.974;20.868;2023-08-07T02:55:49;1.63;;;1.52;;
38937;SDS011;24727;51.974;20.868;2023-08-07T02:58:17;2.17;;;1.30;;
38937;SDS011;24727;51.974;20.868;2023-08-07T03:00:44;2.00;;;1.40;;
38937;SDS011;24727;51.974;20.868;2023-08-07T03:03:10;1.73;;;1.40;;
38937;SDS011;24727;51.974;20.868;2023-08-07T03:05:36;1.75;;;1.65;;
38937;SDS011;24727;51.974;20.868;2023-08-07T03:08:03;1.60;;;1.50;;
38937;SDS011;24727;51.974;20.868;2023-08-07T03:10:29;2.80;;;1.60;;
38937;SDS011;24727;51.974;20.868;2023-08-07T03:12:55;3.53;;;1.77;;
38937;SDS011;24727;51.974;20.868;2023-08-07T03:15:21;5.47;;;1.73;;
38937;SDS011;24727;51.974;20.868;2023-08-07T03:17:47;4.20;;;1.73;;
38937;SDS011;24727;51.974;20.868;2023-08-07T03:20:15;2.35;;;1.90;;
38937;SDS011;24727;51.974;20.868;2023-08-07T03:22:41;2.22;;;1.55;;
38937;SDS011;24727;51.974;20.868;2023-08-07T03:25:07;1.95;;;1.40;;
38937;SDS011;24727;51.974;20.868;2023-08-07T03:27:33;2.58;;;1.50;;
38937;SDS011;24727;51.974;20.868;2023-08-07T03:29:59;2.38;;;1.50;;
38937;SDS011;24727;51.974;20.868;2023-08-07T03:32:25;1.50;;;1.40;;
38937;SDS011;24727;51.974;20.868;2023-08-07T03:34:51;1.48;;;1.20;;
38937;SDS011;24727;51.974;20.868;2023-08-07T03:37:17;3.65;;;1.30;;
38937;SDS011;24727;51.974;20.868;2023-08-07T03:39:43;1.27;;;1.17;;
38937;SDS011;24727;51.974;20.868;2023-08-07T03:42:13;1.38;;;1.27;;
38937;SDS011;24727;51.974;20.868;2023-08-07T03:44:40;3.60;;;1.50;;
38937;SDS011;24727;51.974;20.868;2023-08-07T03:47:06;1.45;;;1.10;;
38937;SDS011;24727;51.974;20.868;2023-08-07T03:49:32;1.83;;;1.20;;
38937;SDS011;24727;51.974;20.868;2023-08-07T03:51:58;1.60;;;1.42;;
38937;SDS011;24727;51.974;20.868;2023-08-07T03:54:24;1.20;;;1.10;;
38937;SDS011;24727;51.974;20.868;2023-08-07T03:56:50;1.30;;;1.08;;
38937;SDS011;24727;51.974;20.868;2023-08-07T03:59:17;1.08;;;0.95;;
38937;SDS011;24727;51.974;20.868;2023-08-07T04:01:43;1.73;;;1.10;;
38937;SDS011;24727;51.974;20.868;2023-08-07T04:04:09;1.20;;;1.10;;
38937;SDS011;24727;51.974;20.868;2023-08-07T04:06:35;1.15;;;1.00;;
38937;SDS011;24727;51.974;20.868;2023-08-07T04:09:01;1.20;;;1.02;;
38937;SDS011;24727;51.974;20.868;2023-08-07T04:11:28;3.70;;;1.38;;
38937;SDS011;24727;51.974;20.868;2023-08-07T04:13:54;1.80;;;1.05;;
38937;SDS011;24727;51.974;20.868;2023-08-07T04:16:20;2.00;;;1.30;;
38937;SDS011;24727;51.974;20.868;2023-08-07T04:18:47;1.83;;;1.13;;
38937;SDS011;24727;51.974;20.868;2023-08-07T04:21:12;1.45;;;1.33;;
38937;SDS011;24727;51.974;20.868;2023-08-07T04:23:38;2.63;;;1.40;;
38937;SDS011;24727;51.974;20.868;2023-08-07T04:26:04;2.20;;;1.38;;
38937;SDS011;24727;51.974;20.868;2023-08-07T04:28:36;1.60;;;1.50;;
38937;SDS011;24727;51.974;20.868;2023-08-07T04:31:03;1.98;;;1.35;;
38937;SDS011;24727;51.974;20.868;2023-08-07T04:33:29;2.20;;;1.48;;
38937;SDS011;24727;51.974;20.868;2023-08-07T04:35:54;1.90;;;1.60;;
38937;SDS011;24727;51.974;20.868;2023-08-07T04:38:22;7.55;;;1.73;;
38937;SDS011;24727;51.974;20.868;2023-08-07T04:40:48;1.80;;;1.70;;
38937;SDS011;24727;51.974;20.868;2023-08-07T04:43:15;1.90;;;1.80;;
38937;SDS011;24727;51.974;20.868;2023-08-07T04:45:42;1.80;;;1.70;;
38937;SDS011;24727;51.974;20.868;2023-08-07T04:48:11;1.88;;;1.77;;
38937;SDS011;24727;51.974;20.868;2023-08-07T04:50:37;2.33;;;2.03;;
38937;SDS011;24727;51.974;20.868;2023-08-07T04:53:07;2.15;;;1.92;;
38937;SDS011;24727;51.974;20.868;2023-08-07T04:55:33;2.80;;;1.80;;
38937;SDS011;24727;51.974;20.868;2023-08-07T04:58:01;2.42;;;2.10;;
38937;SDS011;24727;51.974;20.868;2023-08-07T05:00:27;2.03;;;1.63;;
38937;SDS011;24727;51.974;20.868;2023-08-07T05:02:54;4.00;;;2.20;;
38937;SDS011;24727;51.974;20.868;2023-08-07T05:05:22;2.35;;;2.15;;
38937;SDS011;24727;51.974;20.868;2023-08-07T05:07:49;2.40;;;2.20;;
38937;SDS011;24727;51.974;20.868;2023-08-07T05:10:15;4.40;;;2.17;;
38937;SDS011;24727;51.974;20.868;2023-08-07T05:12:41;3.00;;;2.50;;
38937;SDS011;24727;51.974;20.868;2023-08-07T05:15:13;5.50;;;2.50;;
38937;SDS011;24727;51.974;20.868;2023-08-07T05:17:40;4.20;;;2.60;;
38937;SDS011;24727;51.974;20.868;2023-08-07T05:20:06;3.00;;;2.42;;
38937;SDS011;24727;51.974;20.868;2023-08-07T05:22:34;3.65;;;2.80;;
38937;SDS011;24727;51.974;20.868;2023-08-07T05:25:00;3.72;;;2.67;;
38937;SDS011;24727;51.974;20.868;2023-08-07T05:27:27;3.72;;;2.30;;
38937;SDS011;24727;51.974;20.868;2023-08-07T05:29:56;4.38;;;2.30;;
38937;SDS011;24727;51.974;20.868;2023-08-07T05:32:22;9.77;;;3.35;;
38937;SDS011;24727;51.974;20.868;2023-08-07T05:34:50;3.97;;;2.15;;
38937;SDS011;24727;51.974;20.868;2023-08-07T05:37:16;2.50;;;2.28;;
38937;SDS011;24727;51.974;20.868;2023-08-07T05:39:42;2.15;;;1.95;;
38937;SDS011;24727;51.974;20.868;2023-08-07T05:42:09;2.58;;;1.88;;
38937;SDS011;24727;51.974;20.868;2023-08-07T05:44:35;2.60;;;1.70;;
38937;SDS011;24727;51.974;20.868;2023-08-07T05:47:02;1.70;;;1.60;;
38937;SDS011;24727;51.974;20.868;2023-08-07T05:49:28;1.88;;;1.77;;
38937;SDS011;24727;51.974;20.868;2023-08-07T05:51:55;5.32;;;1.60;;
38937;SDS011;24727;51.974;20.868;2023-08-07T05:54:22;3.97;;;1.70;;
38937;SDS011;24727;51.974;20.868;2023-08-07T05:56:48;1.50;;;1.30;;
38937;SDS011;24727;51.974;20.868;2023-08-07T05:59:14;3.45;;;1.83;;
38937;SDS011;24727;51.974;20.868;2023-08-07T06:01:40;2.50;;;1.58;;
38937;SDS011;24727;51.974;20.868;2023-08-07T06:04:07;2.58;;;2.35;;
38937;SDS011;24727;51.974;20.868;2023-08-07T06:06:34;2.78;;;1.70;;
38937;SDS011;24727;51.974;20.868;2023-08-07T06:09:01;3.92;;;1.83;;
38937;SDS011;24727;51.974;20.868;2023-08-07T06:11:32;2.70;;;1.88;;
38937;SDS011;24727;51.974;20.868;2023-08-07T06:14:00;2.47;;;1.90;;
38937;SDS011;24727;51.974;20.868;2023-08-07T06:16:26;3.70;;;1.90;;
38937;SDS011;24727;51.974;20.868;2023-08-07T06:18:54;5.40;;;1.35;;
38937;SDS011;24727;51.974;20.868;2023-08-07T06:21:19;1.42;;;1.33;;
38937;SDS011;24727;51.974;20.868;2023-08-07T06:23:46;1.77;;;1.20;;
38937;SDS011;24727;51.974;20.868;2023-08-07T06:26:13;3.83;;;1.45;;
38937;SDS011;24727;51.974;20.868;2023-08-07T06:28:41;3.42;;;1.23;;
38937;SDS011;24727;51.974;20.868;2023-08-07T06:31:08;1.63;;;1.35;;
38937;SDS011;24727;51.974;20.868;2023-08-07T06:33:36;1.08;;;0.98;;
38937;SDS011;24727;51.974;20.868;2023-08-07T06:36:03;1.17;;;0.98;;
38937;SDS011;24727;51.974;20.868;2023-08-07T06:38:30;2.25;;;1.08;;
38937;SDS011;24727;51.974;20.868;2023-08-07T06:40:58;1.23;;;0.90;;
38937;SDS011;24727;51.974;20.868;2023-08-07T06:43:24;2.75;;;1.00;;
38937;SDS011;24727;51.974;20.868;2023-08-07T06:45:50;1.95;;;1.20;;
38937;SDS011;24727;51.974;20.868;2023-08-07T06:48:18;4.78;;;1.40;;
38937;SDS011;24727;51.974;20.868;2023-08-07T06:50:46;2.65;;;1.10;;
38937;SDS011;24727;51.974;20.868;2023-08-07T06:53:15;2.47;;;1.20;;
38937;SDS011;24727;51.974;20.868;2023-08-07T06:55:43;1.75;;;1.00;;
38937;SDS011;24727;51.974;20.868;2023-08-07T06:58:10;1.83;;;1.13;;
38937;SDS011;24727;51.974;20.868;2023-08-07T07:00:36;4.13;;;1.70;;
38937;SDS011;24727;51.974;20.868;2023-08-07T07:03:02;2.30;;;1.52;;
38937;SDS011;24727;51.974;20.868;2023-08-07T07:05:29;2.80;;;1.45;;
38937;SDS011;24727;51.974;20.868;2023-08-07T07:07:56;1.60;;;1.50;;
38937;SDS011;24727;51.974;20.868;2023-08-07T07:10:22;1.45;;;1.35;;
38937;SDS011;24727;51.974;20.868;2023-08-07T07:12:49;1.73;;;1.63;;
38937;SDS011;24727;51.974;20.868;2023-08-07T07:15:15;2.25;;;1.40;;
38937;SDS011;24727;51.974;20.868;2023-08-07T07:17:41;3.75;;;1.33;;
38937;SDS011;24727;51.974;20.868;2023-08-07T07:20:07;5.20;;;1.20;;
38937;SDS011;24727;51.974;20.868;2023-08-07T07:22:37;4.07;;;1.05;;
38937;SDS011;24727;51.974;20.868;2023-08-07T07:25:03;1.30;;;1.02;;
38937;SDS011;24727;51.974;20.868;2023-08-07T07:27:31;1.38;;;1.15;;
38937;SDS011;24727;51.974;20.868;2023-08-07T07:29:58;1.92;;;1.00;;
38937;SDS011;24727;51.974;20.868;2023-08-07T07:32:24;2.10;;;0.88;;
38937;SDS011;24727;51.974;20.868;2023-08-07T07:34:51;1.52;;;0.80;;
38937;SDS011;24727;51.974;20.868;2023-08-07T07:37:17;0.93;;;0.63;;
38937;SDS011;24727;51.974;20.868;2023-08-07T07:39:44;4.50;;;1.10;;
38937;SDS011;24727;51.974;20.868;2023-08-07T07:42:10;3.85;;;1.25;;
38937;SDS011;24727;51.974;20.868;2023-08-07T07:44:36;3.38;;;1.13;;
38937;SDS011;24727;51.974;20.868;2023-08-07T07:47:05;2.90;;;1.00;;
38937;SDS011;24727;51.974;20.868;2023-08-07T07:49:32;4.72;;;0.90;;
38937;SDS011;24727;51.974;20.868;2023-08-07T07:51:59;2.55;;;1.33;;
38937;SDS011;24727;51.974;20.868;2023-08-07T07:54:28;2.08;;;1.23;;
38937;SDS011;24727;51.974;20.868;2023-08-07T07:57:00;1.65;;;0.90;;
38937;SDS011;24727;51.974;20.868;2023-08-07T07:59:26;2.45;;;1.02;;
38937;SDS011;24727;51.974;20.868;2023-08-07T08:01:54;1.05;;;0.90;;
38937;SDS011;24727;51.974;20.868;2023-08-07T08:04:20;2.38;;;0.73;;
38937;SDS011;24727;51.974;20.868;2023-08-07T08:06:46;1.98;;;0.90;;
38937;SDS011;24727;51.974;20.868;2023-08-07T08:09:13;3.90;;;0.88;;
38937;SDS011;24727;51.974;20.868;2023-08-07T08:11:40;1.48;;;0.95;;
38937;SDS011;24727;51.974;20.868;2023-08-07T08:14:07;1.30;;;1.13;;
38937;SDS011;24727;51.974;20.868;2023-08-07T08:16:33;1.20;;;1.00;;
38937;SDS011;24727;51.974;20.868;2023-08-07T08:19:00;1.00;;;0.90;;
38937;SDS011;24727;51.974;20.868;2023-08-07T08:21:27;4.95;;;0.70;;
38937;SDS011;24727;51.974;20.868;2023-08-07T08:23:54;2.97;;;0.80;;
38937;SDS011;24727;51.974;20.868;2023-08-07T08:26:20;1.00;;;0.70;;
38937;SDS011;24727;51.974;20.868;2023-08-07T08:28:46;1.27;;;0.73;;
38937;SDS011;24727;51.974;20.868;2023-08-07T08:31:13;1.02;;;0.63;;
38937;SDS011;24727;51.974;20.868;2023-08-07T08:33:45;2.45;;;0.80;;
38937;SDS011;24727;51.974;20.868;2023-08-07T08:36:11;7.40;;;0.90;;
38937;SDS011;24727;51.974;20.868;2023-08-07T08:38:38;5.93;;;0.88;;
38937;SDS011;24727;51.974;20.868;2023-08-07T08:41:03;3.25;;;0.73;;
38937;SDS011;24727;51.974;20.868;2023-08-07T08:43:34;2.55;;;0.90;;
38937;SDS011;24727;51.974;20.868;2023-08-07T08:46:07;2.00;;;0.80;;
38937;SDS011;24727;51.974;20.868;2023-08-07T08:48:34;4.03;;;0.77;;
38937;SDS011;24727;51.974;20.868;2023-08-07T08:51:03;8.63;;;0.90;;
38937;SDS011;24727;51.974;20.868;2023-08-07T08:53:30;0.75;;;0.60;;
38937;SDS011;24727;51.974;20.868;2023-08-07T08:55:57;4.32;;;0.70;;
38937;SDS011;24727;51.974;20.868;2023-08-07T08:58:25;6.13;;;0.93;;
38937;SDS011;24727;51.974;20.868;2023-08-07T09:00:52;5.80;;;0.95;;
38937;SDS011;24727;51.974;20.868;2023-08-07T09:03:19;3.55;;;1.08;;
38937;SDS011;24727;51.974;20.868;2023-08-07T09:05:46;3.38;;;0.93;;
38937;SDS011;24727;51.974;20.868;2023-08-07T09:08:16;1.13;;;0.70;;
38937;SDS011;24727;51.974;20.868;2023-08-07T09:10:42;1.50;;;0.52;;
38937;SDS011;24727;51.974;20.868;2023-08-07T09:13:09;2.42;;;0.70;;
38937;SDS011;24727;51.974;20.868;2023-08-07T09:15:39;2.13;;;0.80;;
38937;SDS011;24727;51.974;20.868;2023-08-07T09:18:07;2.85;;;0.63;;
38937;SDS011;24727;51.974;20.868;2023-08-07T09:20:35;3.25;;;1.17;;
38937;SDS011;24727;51.974;20.868;2023-08-07T09:23:01;1.85;;;0.80;;
38937;SDS011;24727;51.974;20.868;2023-08-07T09:25:28;4.20;;;1.20;;
38937;SDS011;24727;51.974;20.868;2023-08-07T09:27:58;2.88;;;0.70;;
38937;SDS011;24727;51.974;20.868;2023-08-07T09:30:29;1.67;;;0.60;;
38937;SDS011;24727;51.974;20.868;2023-08-07T09:32:59;10.75;;;1.08;;
38937;SDS011;24727;51.974;20.868;2023-08-07T09:35:26;2.53;;;0.60;;
38937;SDS011;24727;51.974;20.868;2023-08-07T09:37:54;0.95;;;0.63;;
38937;SDS011;24727;51.974;20.868;2023-08-07T09:40:22;1.30;;;0.65;;
38937;SDS011;24727;51.974;20.868;2023-08-07T09:42:54;4.80;;;0.75;;
38937;SDS011;24727;51.974;20.868;2023-08-07T09:45:21;3.45;;;0.65;;
38937;SDS011;24727;51.974;20.868;2023-08-07T09:48:01;1.58;;;0.80;;
38937;SDS011;24727;51.974;20.868;2023-08-07T09:50:29;4.88;;;0.80;;
38937;SDS011;24727;51.974;20.868;2023-08-07T09:52:57;2.80;;;0.80;;
38937;SDS011;24727;51.974;20.868;2023-08-07T09:55:23;5.90;;;0.65;;
38937;SDS011;24727;51.974;20.868;2023-08-07T09:57:53;1.50;;;0.60;;
38937;SDS011;24727;51.974;20.868;2023-08-07T10:00:19;2.88;;;1.00;;
38937;SDS011;24727;51.974;20.868;2023-08-07T10:02:46;1.50;;;0.98;;
38937;SDS011;24727;51.974;20.868;2023-08-07T10:05:14;6.38;;;0.70;;
38937;SDS011;24727;51.974;20.868;2023-08-07T10:07:40;2.03;;;0.57;;
38937;SDS011;24727;51.974;20.868;2023-08-07T10:10:07;8.05;;;0.90;;
38937;SDS011;24727;51.974;20.868;2023-08-07T10:12:35;2.25;;;1.00;;
38937;SDS011;24727;51.974;20.868;2023-08-07T10:15:02;3.08;;;0.70;;
38937;SDS011;24727;51.974;20.868;2023-08-07T10:17:29;1.83;;;0.60;;
38937;SDS011;24727;51.974;20.868;2023-08-07T10:19:56;1.58;;;0.70;;
38937;SDS011;24727;51.974;20.868;2023-08-07T10:22:23;5.15;;;0.75;;
38937;SDS011;24727;51.974;20.868;2023-08-07T10:24:53;3.28;;;0.80;;
38937;SDS011;24727;51.974;20.868;2023-08-07T10:27:22;2.38;;;0.55;;
38937;SDS011;24727;51.974;20.868;2023-08-07T10:29:50;5.88;;;1.60;;
38937;SDS011;24727;51.974;20.868;2023-08-07T10:32:20;3.70;;;0.60;;
38937;SDS011;24727;51.974;20.868;2023-08-07T10:34:52;2.88;;;0.80;;
38937;SDS011;24727;51.974;20.868;2023-08-07T10:40:04;3.25;;;0.70;;
38937;SDS011;24727;51.974;20.868;2023-08-07T10:42:58;1.98;;;0.85;;
38937;SDS011;24727;51.974;20.868;2023-08-07T10:45:34;3.08;;;0.90;;
38937;SDS011;24727;51.974;20.868;2023-08-07T10:48:07;4.57;;;1.00;;
38937;SDS011;24727;51.974;20.868;2023-08-07T10:51:02;2.17;;;0.50;;
38937;SDS011;24727;51.974;20.868;2023-08-07T10:53:32;3.03;;;0.70;;
38937;SDS011;24727;51.974;20.868;2023-08-07T10:56:01;4.40;;;1.45;;
38937;SDS011;24727;51.974;20.868;2023-08-07T10:58:36;2.45;;;0.85;;
38937;SDS011;24727;51.974;20.868;2023-08-07T11:04:06;4.18;;;0.63;;
38937;SDS011;24727;51.974;20.868;2023-08-07T11:06:36;4.35;;;0.88;;
38937;SDS011;24727;51.974;20.868;2023-08-07T11:09:04;4.80;;;0.80;;
38937;SDS011;24727;51.974;20.868;2023-08-07T11:11:38;9.35;;;1.23;;
38937;SDS011;24727;51.974;20.868;2023-08-07T11:14:11;2.30;;;0.90;;
38937;SDS011;24727;51.974;20.868;2023-08-07T11:16:38;2.03;;;0.75;;
38937;SDS011;24727;51.974;20.868;2023-08-07T11:19:05;3.97;;;0.80;;
38937;SDS011;24727;51.974;20.868;2023-08-07T11:21:32;3.42;;;1.10;;
38937;SDS011;24727;51.974;20.868;2023-08-07T11:24:00;2.70;;;0.80;;
38937;SDS011;24727;51.974;20.868;2023-08-07T11:26:27;1.45;;;0.80;;
38937;SDS011;24727;51.974;20.868;2023-08-07T11:28:54;3.95;;;0.90;;
38937;SDS011;24727;51.974;20.868;2023-08-07T11:31:23;1.23;;;0.68;;
38937;SDS011;24727;51.974;20.868;2023-08-07T11:33:54;2.97;;;0.88;;
38937;SDS011;24727;51.974;20.868;2023-08-07T11:36:22;4.50;;;1.02;;
38937;SDS011;24727;51.974;20.868;2023-08-07T11:38:50;4.50;;;0.80;;
38937;SDS011;24727;51.974;20.868;2023-08-07T11:41:17;7.63;;;0.88;;
38937;SDS011;24727;51.974;20.868;2023-08-07T11:43:43;2.35;;;0.90;;
38937;SDS011;24727;51.974;20.868;2023-08-07T11:46:11;2.38;;;0.93;;
38937;SDS011;24727;51.974;20.868;2023-08-07T11:48:41;9.02;;;1.08;;
38937;SDS011;24727;51.974;20.868;2023-08-07T11:51:08;4.95;;;0.68;;
38937;SDS011;24727;51.974;20.868;2023-08-07T11:53:35;3.15;;;0.95;;
38937;SDS011;24727;51.974;20.868;2023-08-07T11:56:06;2.17;;;0.90;;
38937;SDS011;24727;51.974;20.868;2023-08-07T11:58:44;3.92;;;1.00;;
38937;SDS011;24727;51.974;20.868;2023-08-07T12:01:15;6.32;;;1.00;;
38937;SDS011;24727;51.974;20.868;2023-08-07T12:03:49;2.28;;;0.98;;
38937;SDS011;24727;51.974;20.868;2023-08-07T12:06:22;2.08;;;1.05;;
38937;SDS011;24727;51.974;20.868;2023-08-07T12:08:53;3.10;;;1.00;;
38937;SDS011;24727;51.974;20.868;2023-08-07T12:11:21;8.32;;;0.90;;
38937;SDS011;24727;51.974;20.868;2023-08-07T12:13:48;4.00;;;1.02;;
38937;SDS011;24727;51.974;20.868;2023-08-07T12:16:15;6.90;;;1.80;;
38937;SDS011;24727;51.974;20.868;2023-08-07T12:18:46;7.30;;;1.10;;
38937;SDS011;24727;51.974;20.868;2023-08-07T12:21:14;3.60;;;1.13;;
38937;SDS011;24727;51.974;20.868;2023-08-07T12:23:45;9.88;;;1.30;;
38937;SDS011;24727;51.974;20.868;2023-08-07T12:26:13;2.25;;;1.20;;
38937;SDS011;24727;51.974;20.868;2023-08-07T12:28:52;3.90;;;1.20;;
38937;SDS011;24727;51.974;20.868;2023-08-07T12:31:19;10.98;;;1.48;;
38937;SDS011;24727;51.974;20.868;2023-08-07T12:33:45;3.22;;;0.93;;
38937;SDS011;24727;51.974;20.868;2023-08-07T12:36:12;2.88;;;0.88;;
38937;SDS011;24727;51.974;20.868;2023-08-07T12:38:41;1.23;;;0.73;;
38937;SDS011;24727;51.974;20.868;2023-08-07T12:41:07;1.95;;;1.30;;
38937;SDS011;24727;51.974;20.868;2023-08-07T12:43:33;4.50;;;1.48;;
38937;SDS011;24727;51.974;20.868;2023-08-07T12:46:00;2.33;;;1.10;;
38937;SDS011;24727;51.974;20.868;2023-08-07T12:48:28;1.40;;;1.00;;
38937;SDS011;24727;51.974;20.868;2023-08-07T12:51:00;1.48;;;0.77;;
38937;SDS011;24727;51.974;20.868;2023-08-07T12:53:26;3.47;;;1.10;;
38937;SDS011;24727;51.974;20.868;2023-08-07T12:55:52;5.15;;;1.08;;
38937;SDS011;24727;51.974;20.868;2023-08-07T12:58:18;1.58;;;0.93;;
38937;SDS011;24727;51.974;20.868;2023-08-07T13:00:48;5.70;;;0.90;;
38937;SDS011;24727;51.974;20.868;2023-08-07T13:03:15;5.05;;;1.30;;
38937;SDS011;24727;51.974;20.868;2023-08-07T13:05:40;5.45;;;1.27;;
38937;SDS011;24727;51.974;20.868;2023-08-07T13:08:06;4.10;;;1.00;;
38937;SDS011;24727;51.974;20.868;2023-08-07T13:10:32;4.20;;;1.17;;
38937;SDS011;24727;51.974;20.868;2023-08-07T13:12:59;3.10;;;1.00;;
38937;SDS011;24727;51.974;20.868;2023-08-07T13:15:27;2.97;;;0.80;;
38937;SDS011;24727;51.974;20.868;2023-08-07T13:17:54;4.72;;;1.13;;
38937;SDS011;24727;51.974;20.868;2023-08-07T13:20:21;2.45;;;1.17;;
38937;SDS011;24727;51.974;20.868;2023-08-07T13:25:16;2.55;;;1.10;;
38937;SDS011;24727;51.974;20.868;2023-08-07T13:27:42;5.10;;;1.45;;
38937;SDS011;24727;51.974;20.868;2023-08-07T13:30:08;2.40;;;1.15;;
38937;SDS011;24727;51.974;20.868;2023-08-07T13:32:36;5.88;;;1.30;;
38937;SDS011;24727;51.974;20.868;2023-08-07T13:35:02;6.43;;;1.13;;
38937;SDS011;24727;51.974;20.868;2023-08-07T13:37:28;3.42;;;1.17;;
38937;SDS011;24727;51.974;20.868;2023-08-07T13:39:55;3.28;;;1.05;;
38937;SDS011;24727;51.974;20.868;2023-08-07T13:42:24;2.17;;;1.20;;
38937;SDS011;24727;51.974;20.868;2023-08-07T13:44:55;1.25;;;1.00;;
38937;SDS011;24727;51.974;20.868;2023-08-07T13:47:23;1.10;;;0.85;;
38937;SDS011;24727;51.974;20.868;2023-08-07T13:49:52;2.42;;;1.48;;
38937;SDS011;24727;51.974;20.868;2023-08-07T13:52:20;3.63;;;0.90;;
38937;SDS011;24727;51.974;20.868;2023-08-07T13:54:46;2.53;;;1.30;;
38937;SDS011;24727;51.974;20.868;2023-08-07T13:57:13;1.77;;;1.13;;
38937;SDS011;24727;51.974;20.868;2023-08-07T13:59:39;2.85;;;0.95;;
38937;SDS011;24727;51.974;20.868;2023-08-07T14:02:06;1.83;;;1.10;;
38937;SDS011;24727;51.974;20.868;2023-08-07T14:04:32;1.75;;;0.98;;
38937;SDS011;24727;51.974;20.868;2023-08-07T14:07:01;6.35;;;1.02;;
38937;SDS011;24727;51.974;20.868;2023-08-07T14:09:29;2.22;;;1.00;;
38937;SDS011;24727;51.974;20.868;2023-08-07T14:11:56;2.20;;;1.10;;
38937;SDS011;24727;51.974;20.868;2023-08-07T14:14:23;3.40;;;1.30;;
38937;SDS011;24727;51.974;20.868;2023-08-07T14:16:49;4.30;;;1.40;;
38937;SDS011;24727;51.974;20.868;2023-08-07T14:19:15;3.28;;;1.30;;
38937;SDS011;24727;51.974;20.868;2023-08-07T14:21:43;1.33;;;1.02;;
38937;SDS011;24727;51.974;20.868;2023-08-07T14:24:09;2.72;;;1.60;;
38937;SDS011;24727;51.974;20.868;2023-08-07T14:26:35;3.72;;;1.60;;
38937;SDS011;24727;51.974;20.868;2023-08-07T14:29:02;2.00;;;1.15;;
38937;SDS011;24727;51.974;20.868;2023-08-07T14:31:29;3.42;;;1.50;;
38937;SDS011;24727;51.974;20.868;2023-08-07T14:33:57;2.35;;;1.13;;
38937;SDS011;24727;51.974;20.868;2023-08-07T14:36:23;1.98;;;1.10;;
38937;SDS011;24727;51.974;20.868;2023-08-07T14:38:50;2.78;;;1.15;;
38937;SDS011;24727;51.974;20.868;2023-08-07T14:41:16;6.00;;;1.75;;
38937;SDS011;24727;51.974;20.868;2023-08-07T14:43:44;5.95;;;1.45;;
38937;SDS011;24727;51.974;20.868;2023-08-07T14:46:11;2.45;;;1.48;;
38937;SDS011;24727;51.974;20.868;2023-08-07T14:48:37;2.67;;;1.40;;